Main page
METAR-TAF:

METAR-TAF

Airports :

Lorient South Brittany Airport

Lorient, France

latitude: 47-46N, longitude: 003-27W, elevation: 52 m

Current weather observation

The report was made 27 minutes ago, at 20:30 UTC
Wind 4 kt from the North/Northeast
Temperature 15°C
Humidity 72%
Pressure 1021 hPa
Visibility 10 km or more
no clouds below 1500 m and no cumulonimbus

METAR: LFRH 092030Z AUTO 03004KT CAVOK 15/10 Q1021 NOSIG

Time: 22:57 (20:57 UTC)

Forecast

The report was made 3 hours and 57 minutes ago, at 17:00 UTC
Forecast valid from 09 at 18 UTC to 10 at 18 UTC
Wind 2 kt from variable directions
Visibility 10 km or more
no clouds below 1500 m and no cumulonimbus
Becoming
from 09 at 23 UTC to 10 at 03 UTC
Wind 10 kt from the East/Northeast
Becoming
from 10 at 11 UTC to 10 at 13 UTC
Wind 10 kt from the Southeast

TAF: LFRH 091700Z 0918/1018 VRB02KT CAVOK BECMG 0923/1003 07010KT BECMG 1011/1013 13010KT

Weather observations and forecasts of more than 4000 airports (METAR and TAF reports).

The available stations are represented by yellow and red dots on the map.

Hover mouse over dot to see the name of the station.

Then click to see weather observations and forecasts.

To change the map : click on the green buttons with a black cross to zoom in, on the green button with a dash to zoom out, or on the green arrows for adjacent maps.


METAR-TAF: